sensor_id;sensor_type;location;lat;lon;timestamp;temperature;humidity
2389;DHT22;1205;47.984;7.668;2022-11-20T00:00:25;8.20;99.90
2389;DHT22;1205;47.984;7.668;2022-11-20T00:02:50;8.10;99.90
2389;DHT22;1205;47.984;7.668;2022-11-20T00:05:16;8.10;99.90
2389;DHT22;1205;47.984;7.668;2022-11-20T00:07:42;8.10;99.90
2389;DHT22;1205;47.984;7.668;2022-11-20T00:10:08;8.10;99.90
2389;DHT22;1205;47.984;7.668;2022-11-20T00:12:34;8.10;99.90
2389;DHT22;1205;47.984;7.668;2022-11-20T00:14:59;8.10;99.90
2389;DHT22;1205;47.984;7.668;2022-11-20T00:17:25;8.10;99.90
2389;DHT22;1205;47.984;7.668;2022-11-20T00:19:51;8.10;99.90
2389;DHT22;1205;47.984;7.668;2022-11-20T00:22:16;8.00;99.90
2389;DHT22;1205;47.984;7.668;2022-11-20T00:24:42;8.00;99.90
2389;DHT22;1205;47.984;7.668;2022-11-20T00:27:07;8.00;99.90
2389;DHT22;1205;47.984;7.668;2022-11-20T00:29:33;8.00;99.90
2389;DHT22;1205;47.984;7.668;2022-11-20T00:31:58;8.10;99.90
2389;DHT22;1205;47.984;7.668;2022-11-20T00:34:24;8.00;99.90
2389;DHT22;1205;47.984;7.668;2022-11-20T00:36:49;8.00;99.90
2389;DHT22;1205;47.984;7.668;2022-11-20T00:39:15;7.90;99.90
2389;DHT22;1205;47.984;7.668;2022-11-20T00:41:41;7.90;99.90
2389;DHT22;1205;47.984;7.668;2022-11-20T00:44:06;7.90;99.90
2389;DHT22;1205;47.984;7.668;2022-11-20T00:46:32;7.90;99.90
2389;DHT22;1205;47.984;7.668;2022-11-20T00:48:57;7.90;99.90
2389;DHT22;1205;47.984;7.668;2022-11-20T00:51:25;7.90;99.90
2389;DHT22;1205;47.984;7.668;2022-11-20T00:53:51;7.90;99.90
2389;DHT22;1205;47.984;7.668;2022-11-20T00:56:18;8.00;99.90
2389;DHT22;1205;47.984;7.668;2022-11-20T00:58:47;8.00;99.90
2389;DHT22;1205;47.984;7.668;2022-11-20T01:03:44;7.90;99.90
2389;DHT22;1205;47.984;7.668;2022-11-20T01:06:13;8.00;99.90
2389;DHT22;1205;47.984;7.668;2022-11-20T01:08:40;8.00;99.90
2389;DHT22;1205;47.984;7.668;2022-11-20T01:11:09;8.00;99.90
2389;DHT22;1205;47.984;7.668;2022-11-20T01:13:35;8.00;99.90
2389;DHT22;1205;47.984;7.668;2022-11-20T01:18:42;7.90;99.90
2389;DHT22;1205;47.984;7.668;2022-11-20T01:21:10;7.90;99.90
2389;DHT22;1205;47.984;7.668;2022-11-20T01:23:38;7.90;99.90
2389;DHT22;1205;47.984;7.668;2022-11-20T01:26:12;7.90;99.90
2389;DHT22;1205;47.984;7.668;2022-11-20T01:28:38;7.90;99.90
2389;DHT22;1205;47.984;7.668;2022-11-20T01:31:28;7.90;99.90
2389;DHT22;1205;47.984;7.668;2022-11-20T01:33:56;7.90;99.90
2389;DHT22;1205;47.984;7.668;2022-11-20T01:36:24;7.90;99.90
2389;DHT22;1205;47.984;7.668;2022-11-20T01:38:56;7.90;99.90
2389;DHT22;1205;47.984;7.668;2022-11-20T01:41:22;7.90;99.90
2389;DHT22;1205;47.984;7.668;2022-11-20T01:44:07;7.90;99.90
2389;DHT22;1205;47.984;7.668;2022-11-20T01:46:37;7.90;99.90
2389;DHT22;1205;47.984;7.668;2022-11-20T01:49:04;8.00;99.90
2389;DHT22;1205;47.984;7.668;2022-11-20T01:54:01;7.90;99.90
2389;DHT22;1205;47.984;7.668;2022-11-20T01:56:31;8.00;99.90
2389;DHT22;1205;47.984;7.668;2022-11-20T01:58:59;7.90;99.90
2389;DHT22;1205;47.984;7.668;2022-11-20T02:01:27;7.90;99.90
2389;DHT22;1205;47.984;7.668;2022-11-20T02:03:53;7.90;99.90
2389;DHT22;1205;47.984;7.668;2022-11-20T02:06:56;7.90;99.90
2389;DHT22;1205;47.984;7.668;2022-11-20T02:09:24;8.00;99.90
2389;DHT22;1205;47.984;7.668;2022-11-20T02:11:50;7.90;99.90
2389;DHT22;1205;47.984;7.668;2022-11-20T02:14:15;7.90;99.90
2389;DHT22;1205;47.984;7.668;2022-11-20T02:16:45;7.90;99.90
2389;DHT22;1205;47.984;7.668;2022-11-20T02:19:26;7.90;99.90
2389;DHT22;1205;47.984;7.668;2022-11-20T02:21:58;7.90;99.90
2389;DHT22;1205;47.984;7.668;2022-11-20T02:24:25;7.90;99.90
2389;DHT22;1205;47.984;7.668;2022-11-20T02:26:54;7.90;99.90
2389;DHT22;1205;47.984;7.668;2022-11-20T02:29:36;7.90;99.90
2389;DHT22;1205;47.984;7.668;2022-11-20T02:32:03;7.90;99.90
2389;DHT22;1205;47.984;7.668;2022-11-20T02:34:29;7.90;99.90
2389;DHT22;1205;47.984;7.668;2022-11-20T02:36:56;7.90;99.90
2389;DHT22;1205;47.984;7.668;2022-11-20T02:39:24;7.90;99.90
2389;DHT22;1205;47.984;7.668;2022-11-20T02:41:53;7.80;99.90
2389;DHT22;1205;47.984;7.668;2022-11-20T02:44:19;7.80;99.90
2389;DHT22;1205;47.984;7.668;2022-11-20T02:46:45;7.80;99.90
2389;DHT22;1205;47.984;7.668;2022-11-20T02:49:11;7.70;99.90
2389;DHT22;1205;47.984;7.668;2022-11-20T02:51:36;7.70;99.90
2389;DHT22;1205;47.984;7.668;2022-11-20T02:54:02;7.70;99.90
2389;DHT22;1205;47.984;7.668;2022-11-20T02:56:28;7.70;99.90
2389;DHT22;1205;47.984;7.668;2022-11-20T02:58:53;7.70;99.90
2389;DHT22;1205;47.984;7.668;2022-11-20T03:01:19;7.60;99.90
2389;DHT22;1205;47.984;7.668;2022-11-20T03:03:45;7.60;99.90
2389;DHT22;1205;47.984;7.668;2022-11-20T03:06:10;7.70;99.90
2389;DHT22;1205;47.984;7.668;2022-11-20T03:08:36;7.70;99.90
2389;DHT22;1205;47.984;7.668;2022-11-20T03:11:03;7.60;99.90
2389;DHT22;1205;47.984;7.668;2022-11-20T03:13:29;7.60;99.90
2389;DHT22;1205;47.984;7.668;2022-11-20T03:15:55;7.60;99.90
2389;DHT22;1205;47.984;7.668;2022-11-20T03:18:20;7.70;99.90
2389;DHT22;1205;47.984;7.668;2022-11-20T03:20:46;7.70;99.90
2389;DHT22;1205;47.984;7.668;2022-11-20T03:23:12;7.70;99.90
2389;DHT22;1205;47.984;7.668;2022-11-20T03:25:37;7.70;99.90
2389;DHT22;1205;47.984;7.668;2022-11-20T03:28:03;7.70;99.90
2389;DHT22;1205;47.984;7.668;2022-11-20T03:30:28;7.70;99.90
2389;DHT22;1205;47.984;7.668;2022-11-20T03:32:54;7.70;99.90
2389;DHT22;1205;47.984;7.668;2022-11-20T03:35:20;7.80;99.90
2389;DHT22;1205;47.984;7.668;2022-11-20T03:37:45;7.80;99.90
2389;DHT22;1205;47.984;7.668;2022-11-20T03:40:11;7.70;99.90
2389;DHT22;1205;47.984;7.668;2022-11-20T03:42:37;7.80;99.90
2389;DHT22;1205;47.984;7.668;2022-11-20T03:45:13;7.70;99.90
2389;DHT22;1205;47.984;7.668;2022-11-20T03:47:39;7.80;99.90
2389;DHT22;1205;47.984;7.668;2022-11-20T03:50:05;7.80;99.90
2389;DHT22;1205;47.984;7.668;2022-11-20T03:52:31;7.80;99.90
2389;DHT22;1205;47.984;7.668;2022-11-20T03:54:57;7.80;99.90
2389;DHT22;1205;47.984;7.668;2022-11-20T03:57:22;7.70;99.90
2389;DHT22;1205;47.984;7.668;2022-11-20T03:59:48;7.70;99.90
2389;DHT22;1205;47.984;7.668;2022-11-20T04:02:13;7.70;99.90
2389;DHT22;1205;47.984;7.668;2022-11-20T04:04:39;7.80;99.90
2389;DHT22;1205;47.984;7.668;2022-11-20T04:07:04;7.80;99.90
2389;DHT22;1205;47.984;7.668;2022-11-20T04:09:30;7.80;99.90
2389;DHT22;1205;47.984;7.668;2022-11-20T04:11:56;7.70;99.90
2389;DHT22;1205;47.984;7.668;2022-11-20T04:14:21;7.70;99.90
2389;DHT22;1205;47.984;7.668;2022-11-20T04:16:47;7.80;99.90
2389;DHT22;1205;47.984;7.668;2022-11-20T04:19:15;7.80;99.90
2389;DHT22;1205;47.984;7.668;2022-11-20T04:21:41;7.80;99.90
2389;DHT22;1205;47.984;7.668;2022-11-20T04:24:07;7.70;99.90
2389;DHT22;1205;47.984;7.668;2022-11-20T04:26:33;7.70;99.90
2389;DHT22;1205;47.984;7.668;2022-11-20T04:28:59;7.70;99.90
2389;DHT22;1205;47.984;7.668;2022-11-20T04:31:29;7.70;99.90
2389;DHT22;1205;47.984;7.668;2022-11-20T04:33:55;7.60;99.90
2389;DHT22;1205;47.984;7.668;2022-11-20T04:36:23;7.60;99.90
2389;DHT22;1205;47.984;7.668;2022-11-20T04:38:53;7.60;99.90
2389;DHT22;1205;47.984;7.668;2022-11-20T04:41:20;7.70;99.90
2389;DHT22;1205;47.984;7.668;2022-11-20T04:43:48;7.70;99.90
2389;DHT22;1205;47.984;7.668;2022-11-20T04:46:14;7.70;99.90
2389;DHT22;1205;47.984;7.668;2022-11-20T04:48:40;7.60;99.90
2389;DHT22;1205;47.984;7.668;2022-11-20T04:51:06;7.70;99.90
2389;DHT22;1205;47.984;7.668;2022-11-20T04:53:32;7.60;99.90
2389;DHT22;1205;47.984;7.668;2022-11-20T04:56:01;7.70;99.90
2389;DHT22;1205;47.984;7.668;2022-11-20T04:58:28;7.70;99.90
2389;DHT22;1205;47.984;7.668;2022-11-20T05:00:53;7.70;99.90
2389;DHT22;1205;47.984;7.668;2022-11-20T05:03:19;7.70;99.90
2389;DHT22;1205;47.984;7.668;2022-11-20T05:05:44;7.70;99.90
2389;DHT22;1205;47.984;7.668;2022-11-20T05:08:10;7.70;99.90
2389;DHT22;1205;47.984;7.668;2022-11-20T05:10:35;7.70;99.90
2389;DHT22;1205;47.984;7.668;2022-11-20T05:13:01;7.60;99.90
2389;DHT22;1205;47.984;7.668;2022-11-20T05:15:26;7.70;99.90
2389;DHT22;1205;47.984;7.668;2022-11-20T05:17:52;7.70;99.90
2389;DHT22;1205;47.984;7.668;2022-11-20T05:20:19;7.70;99.90
2389;DHT22;1205;47.984;7.668;2022-11-20T05:22:44;7.70;99.90
2389;DHT22;1205;47.984;7.668;2022-11-20T05:25:10;7.70;99.90
2389;DHT22;1205;47.984;7.668;2022-11-20T05:27:36;7.70;99.90
2389;DHT22;1205;47.984;7.668;2022-11-20T05:30:06;7.60;99.90
2389;DHT22;1205;47.984;7.668;2022-11-20T05:32:31;7.60;99.90
2389;DHT22;1205;47.984;7.668;2022-11-20T05:34:57;7.70;99.90
2389;DHT22;1205;47.984;7.668;2022-11-20T05:37:22;7.80;99.90
2389;DHT22;1205;47.984;7.668;2022-11-20T05:39:48;7.80;99.90
2389;DHT22;1205;47.984;7.668;2022-11-20T05:42:13;7.80;99.90
2389;DHT22;1205;47.984;7.668;2022-11-20T05:44:58;7.80;99.90
2389;DHT22;1205;47.984;7.668;2022-11-20T05:47:25;7.80;99.90
2389;DHT22;1205;47.984;7.668;2022-11-20T05:49:50;7.70;99.90
2389;DHT22;1205;47.984;7.668;2022-11-20T05:52:17;7.70;99.90
2389;DHT22;1205;47.984;7.668;2022-11-20T05:54:42;7.70;99.90
2389;DHT22;1205;47.984;7.668;2022-11-20T05:57:08;7.70;99.90
2389;DHT22;1205;47.984;7.668;2022-11-20T05:59:33;7.70;99.90
2389;DHT22;1205;47.984;7.668;2022-11-20T06:01:59;7.70;99.90
2389;DHT22;1205;47.984;7.668;2022-11-20T06:04:24;7.70;99.90
2389;DHT22;1205;47.984;7.668;2022-11-20T06:06:50;7.70;99.90
2389;DHT22;1205;47.984;7.668;2022-11-20T06:09:16;7.70;99.90
2389;DHT22;1205;47.984;7.668;2022-11-20T06:11:41;7.80;99.90
2389;DHT22;1205;47.984;7.668;2022-11-20T06:14:07;7.70;99.90
2389;DHT22;1205;47.984;7.668;2022-11-20T06:16:32;7.70;99.90
2389;DHT22;1205;47.984;7.668;2022-11-20T06:18:58;7.70;99.90
2389;DHT22;1205;47.984;7.668;2022-11-20T06:21:24;7.80;99.90
2389;DHT22;1205;47.984;7.668;2022-11-20T06:23:51;7.80;99.90
2389;DHT22;1205;47.984;7.668;2022-11-20T06:26:23;7.70;99.90
2389;DHT22;1205;47.984;7.668;2022-11-20T06:28:49;7.70;99.90
2389;DHT22;1205;47.984;7.668;2022-11-20T06:31:17;7.80;99.90
2389;DHT22;1205;47.984;7.668;2022-11-20T06:33:43;7.80;99.90
2389;DHT22;1205;47.984;7.668;2022-11-20T06:36:10;7.90;99.90
2389;DHT22;1205;47.984;7.668;2022-11-20T06:38:36;7.80;99.90
2389;DHT22;1205;47.984;7.668;2022-11-20T06:41:04;7.90;99.90
2389;DHT22;1205;47.984;7.668;2022-11-20T06:43:29;7.90;99.90
2389;DHT22;1205;47.984;7.668;2022-11-20T06:45:56;7.90;99.90
2389;DHT22;1205;47.984;7.668;2022-11-20T06:48:23;7.90;99.90
2389;DHT22;1205;47.984;7.668;2022-11-20T06:50:49;7.90;99.90
2389;DHT22;1205;47.984;7.668;2022-11-20T06:53:14;7.90;99.90
2389;DHT22;1205;47.984;7.668;2022-11-20T06:55:47;7.90;99.90
2389;DHT22;1205;47.984;7.668;2022-11-20T06:58:13;7.90;99.90
2389;DHT22;1205;47.984;7.668;2022-11-20T07:00:39;7.90;99.90
2389;DHT22;1205;47.984;7.668;2022-11-20T07:03:07;7.90;99.90
2389;DHT22;1205;47.984;7.668;2022-11-20T07:05:33;7.90;99.90
2389;DHT22;1205;47.984;7.668;2022-11-20T07:07:58;7.80;99.90
2389;DHT22;1205;47.984;7.668;2022-11-20T07:10:25;7.80;99.90
2389;DHT22;1205;47.984;7.668;2022-11-20T07:12:52;7.90;99.90
2389;DHT22;1205;47.984;7.668;2022-11-20T07:15:18;7.80;99.90
2389;DHT22;1205;47.984;7.668;2022-11-20T07:17:44;7.90;99.90
2389;DHT22;1205;47.984;7.668;2022-11-20T07:20:10;7.80;99.90
2389;DHT22;1205;47.984;7.668;2022-11-20T07:22:36;7.90;99.90
2389;DHT22;1205;47.984;7.668;2022-11-20T07:25:01;7.90;99.90
2389;DHT22;1205;47.984;7.668;2022-11-20T07:27:27;7.90;99.90
2389;DHT22;1205;47.984;7.668;2022-11-20T07:29:53;8.00;99.90
2389;DHT22;1205;47.984;7.668;2022-11-20T07:32:19;8.00;99.90
2389;DHT22;1205;47.984;7.668;2022-11-20T07:34:44;8.80;99.90
2389;DHT22;1205;47.984;7.668;2022-11-20T07:37:10;9.30;99.90
2389;DHT22;1205;47.984;7.668;2022-11-20T07:39:35;9.60;99.90
2389;DHT22;1205;47.984;7.668;2022-11-20T07:42:01;9.50;99.90
2389;DHT22;1205;47.984;7.668;2022-11-20T07:44:26;9.60;99.90
2389;DHT22;1205;47.984;7.668;2022-11-20T07:46:52;9.20;99.90
2389;DHT22;1205;47.984;7.668;2022-11-20T07:49:18;8.90;99.90
2389;DHT22;1205;47.984;7.668;2022-11-20T07:51:43;8.80;99.90
2389;DHT22;1205;47.984;7.668;2022-11-20T07:54:09;8.60;99.90
2389;DHT22;1205;47.984;7.668;2022-11-20T07:56:34;8.50;99.90
2389;DHT22;1205;47.984;7.668;2022-11-20T07:59:00;8.50;99.90
2389;DHT22;1205;47.984;7.668;2022-11-20T08:01:25;8.50;99.90
2389;DHT22;1205;47.984;7.668;2022-11-20T08:03:51;8.40;99.90
2389;DHT22;1205;47.984;7.668;2022-11-20T08:06:16;8.40;99.90
2389;DHT22;1205;47.984;7.668;2022-11-20T08:08:43;8.30;99.90
2389;DHT22;1205;47.984;7.668;2022-11-20T08:11:09;8.30;99.90
2389;DHT22;1205;47.984;7.668;2022-11-20T08:13:53;8.30;99.90
2389;DHT22;1205;47.984;7.668;2022-11-20T08:16:40;8.30;99.90
2389;DHT22;1205;47.984;7.668;2022-11-20T08:19:06;8.40;99.90
2389;DHT22;1205;47.984;7.668;2022-11-20T08:21:32;8.40;99.90
2389;DHT22;1205;47.984;7.668;2022-11-20T08:23:58;8.30;99.90
2389;DHT22;1205;47.984;7.668;2022-11-20T08:26:24;8.50;99.90
2389;DHT22;1205;47.984;7.668;2022-11-20T08:28:57;8.40;99.90
2389;DHT22;1205;47.984;7.668;2022-11-20T08:31:23;8.50;99.90
2389;DHT22;1205;47.984;7.668;2022-11-20T08:33:49;8.60;99.90
2389;DHT22;1205;47.984;7.668;2022-11-20T08:36:15;8.70;99.90
2389;DHT22;1205;47.984;7.668;2022-11-20T08:38:41;8.70;99.90
2389;DHT22;1205;47.984;7.668;2022-11-20T08:41:07;8.70;99.90
2389;DHT22;1205;47.984;7.668;2022-11-20T08:44:02;8.70;99.90
2389;DHT22;1205;47.984;7.668;2022-11-20T08:46:34;8.80;99.90
2389;DHT22;1205;47.984;7.668;2022-11-20T08:49:01;8.80;99.90
2389;DHT22;1205;47.984;7.668;2022-11-20T08:51:27;8.70;99.90
2389;DHT22;1205;47.984;7.668;2022-11-20T08:53:53;8.70;99.90
2389;DHT22;1205;47.984;7.668;2022-11-20T08:56:18;8.80;99.90
2389;DHT22;1205;47.984;7.668;2022-11-20T08:58:44;8.80;99.90
2389;DHT22;1205;47.984;7.668;2022-11-20T09:01:10;8.90;99.90
2389;DHT22;1205;47.984;7.668;2022-11-20T09:03:36;8.90;99.90
2389;DHT22;1205;47.984;7.668;2022-11-20T09:06:04;8.70;99.90
2389;DHT22;1205;47.984;7.668;2022-11-20T09:08:31;8.80;99.90
2389;DHT22;1205;47.984;7.668;2022-11-20T09:10:57;8.80;99.90
2389;DHT22;1205;47.984;7.668;2022-11-20T09:13:24;8.90;99.90
2389;DHT22;1205;47.984;7.668;2022-11-20T09:16:01;8.80;99.90
2389;DHT22;1205;47.984;7.668;2022-11-20T09:18:28;8.90;99.90
2389;DHT22;1205;47.984;7.668;2022-11-20T09:21:01;8.90;99.90
2389;DHT22;1205;47.984;7.668;2022-11-20T09:23:30;8.90;99.90
2389;DHT22;1205;47.984;7.668;2022-11-20T09:25:56;9.00;99.90
2389;DHT22;1205;47.984;7.668;2022-11-20T09:28:25;9.10;99.90
2389;DHT22;1205;47.984;7.668;2022-11-20T09:30:51;9.10;99.90
2389;DHT22;1205;47.984;7.668;2022-11-20T09:33:17;9.20;99.90
2389;DHT22;1205;47.984;7.668;2022-11-20T09:35:43;9.30;99.90
2389;DHT22;1205;47.984;7.668;2022-11-20T09:38:10;9.30;99.90
2389;DHT22;1205;47.984;7.668;2022-11-20T09:40:38;9.40;99.90
2389;DHT22;1205;47.984;7.668;2022-11-20T09:43:15;9.30;99.90
2389;DHT22;1205;47.984;7.668;2022-11-20T09:45:56;9.40;99.90
2389;DHT22;1205;47.984;7.668;2022-11-20T09:51:16;9.50;99.90
2389;DHT22;1205;47.984;7.668;2022-11-20T09:56:25;9.60;99.90
2389;DHT22;1205;47.984;7.668;2022-11-20T09:58:53;9.60;99.90
2389;DHT22;1205;47.984;7.668;2022-11-20T10:01:24;9.60;99.90
2389;DHT22;1205;47.984;7.668;2022-11-20T10:04:14;9.60;99.90
2389;DHT22;1205;47.984;7.668;2022-11-20T10:06:47;9.70;99.90
2389;DHT22;1205;47.984;7.668;2022-11-20T10:09:29;9.70;99.90
2389;DHT22;1205;47.984;7.668;2022-11-20T10:12:18;9.70;99.90
2389;DHT22;1205;47.984;7.668;2022-11-20T10:20:17;9.80;99.90
2389;DHT22;1205;47.984;7.668;2022-11-20T10:22:58;9.90;99.90
2389;DHT22;1205;47.984;7.668;2022-11-20T10:31:00;9.80;99.90
2389;DHT22;1205;47.984;7.668;2022-11-20T10:33:31;9.90;99.90
2389;DHT22;1205;47.984;7.668;2022-11-20T10:36:04;9.90;99.90
2389;DHT22;1205;47.984;7.668;2022-11-20T10:38:38;10.00;99.90
2389;DHT22;1205;47.984;7.668;2022-11-20T10:41:07;10.00;99.90
2389;DHT22;1205;47.984;7.668;2022-11-20T10:44:10;10.00;99.90
2389;DHT22;1205;47.984;7.668;2022-11-20T10:46:44;10.10;99.90
2389;DHT22;1205;47.984;7.668;2022-11-20T10:49:16;10.20;99.90
2389;DHT22;1205;47.984;7.668;2022-11-20T10:52:09;10.20;99.90
2389;DHT22;1205;47.984;7.668;2022-11-20T10:54:59;10.20;99.90
2389;DHT22;1205;47.984;7.668;2022-11-20T10:57:44;10.40;99.90
2389;DHT22;1205;47.984;7.668;2022-11-20T11:00:11;10.40;99.90
2389;DHT22;1205;47.984;7.668;2022-11-20T11:02:46;10.40;99.90
2389;DHT22;1205;47.984;7.668;2022-11-20T11:05:15;10.50;99.90
2389;DHT22;1205;47.984;7.668;2022-11-20T11:07:44;10.40;99.90
2389;DHT22;1205;47.984;7.668;2022-11-20T11:10:21;10.30;99.90
2389;DHT22;1205;47.984;7.668;2022-11-20T11:12:48;10.20;99.90
2389;DHT22;1205;47.984;7.668;2022-11-20T11:15:25;10.10;99.90
2389;DHT22;1205;47.984;7.668;2022-11-20T11:17:51;10.00;99.90
2389;DHT22;1205;47.984;7.668;2022-11-20T11:20:21;9.90;99.90
2389;DHT22;1205;47.984;7.668;2022-11-20T11:22:50;10.00;99.90
2389;DHT22;1205;47.984;7.668;2022-11-20T11:25:33;10.00;99.90
2389;DHT22;1205;47.984;7.668;2022-11-20T11:28:04;10.10;99.90
2389;DHT22;1205;47.984;7.668;2022-11-20T11:30:41;10.10;99.90
2389;DHT22;1205;47.984;7.668;2022-11-20T11:33:18;10.10;99.90
2389;DHT22;1205;47.984;7.668;2022-11-20T11:35:53;10.10;99.90
2389;DHT22;1205;47.984;7.668;2022-11-20T11:41:02;10.00;99.90
2389;DHT22;1205;47.984;7.668;2022-11-20T11:43:31;10.00;99.90
2389;DHT22;1205;47.984;7.668;2022-11-20T11:46:33;9.90;99.90
2389;DHT22;1205;47.984;7.668;2022-11-20T11:52:08;9.90;99.90
2389;DHT22;1205;47.984;7.668;2022-11-20T11:54:37;9.90;99.90
2389;DHT22;1205;47.984;7.668;2022-11-20T12:00:08;10.00;99.90
2389;DHT22;1205;47.984;7.668;2022-11-20T12:11:16;10.40;99.90
2389;DHT22;1205;47.984;7.668;2022-11-20T12:13:44;10.20;99.90
2389;DHT22;1205;47.984;7.668;2022-11-20T12:16:14;10.20;99.90
2389;DHT22;1205;47.984;7.668;2022-11-20T12:18:42;10.20;99.90
2389;DHT22;1205;47.984;7.668;2022-11-20T12:24:24;10.30;99.90
2389;DHT22;1205;47.984;7.668;2022-11-20T12:32:52;10.20;99.90
2389;DHT22;1205;47.984;7.668;2022-11-20T12:35:32;10.10;99.90
2389;DHT22;1205;47.984;7.668;2022-11-20T12:41:08;10.20;99.90
2389;DHT22;1205;47.984;7.668;2022-11-20T12:44:00;10.20;99.90
2389;DHT22;1205;47.984;7.668;2022-11-20T12:47:05;10.10;99.90
2389;DHT22;1205;47.984;7.668;2022-11-20T12:49:42;10.20;99.90
2389;DHT22;1205;47.984;7.668;2022-11-20T12:55:09;10.40;99.90
2389;DHT22;1205;47.984;7.668;2022-11-20T12:58:00;10.40;99.90
2389;DHT22;1205;47.984;7.668;2022-11-20T13:00:30;10.40;99.90
2389;DHT22;1205;47.984;7.668;2022-11-20T13:05:37;10.40;99.90
2389;DHT22;1205;47.984;7.668;2022-11-20T13:08:15;10.50;99.90
2389;DHT22;1205;47.984;7.668;2022-11-20T13:11:03;10.50;99.90
2389;DHT22;1205;47.984;7.668;2022-11-20T13:16:28;10.40;99.90
2389;DHT22;1205;47.984;7.668;2022-11-20T13:19:02;10.20;99.90
2389;DHT22;1205;47.984;7.668;2022-11-20T13:21:40;10.00;99.90
2389;DHT22;1205;47.984;7.668;2022-11-20T13:24:23;10.00;99.90
2389;DHT22;1205;47.984;7.668;2022-11-20T13:27:19;10.10;99.90
2389;DHT22;1205;47.984;7.668;2022-11-20T13:29:58;10.20;99.90
2389;DHT22;1205;47.984;7.668;2022-11-20T13:32:26;10.20;99.90
2389;DHT22;1205;47.984;7.668;2022-11-20T13:35:03;10.20;99.90
2389;DHT22;1205;47.984;7.668;2022-11-20T13:37:34;10.20;99.90
2389;DHT22;1205;47.984;7.668;2022-11-20T13:45:27;10.30;99.90
2389;DHT22;1205;47.984;7.668;2022-11-20T13:47:54;10.30;99.90
2389;DHT22;1205;47.984;7.668;2022-11-20T13:50:47;10.10;99.90
2389;DHT22;1205;47.984;7.668;2022-11-20T13:56:10;10.20;99.90
2389;DHT22;1205;47.984;7.668;2022-11-20T14:01:25;9.90;99.90
2389;DHT22;1205;47.984;7.668;2022-11-20T14:03:52;10.00;99.90
2389;DHT22;1205;47.984;7.668;2022-11-20T14:06:28;10.00;99.90
2389;DHT22;1205;47.984;7.668;2022-11-20T14:08:55;10.00;99.90
2389;DHT22;1205;47.984;7.668;2022-11-20T14:11:28;10.00;99.90
2389;DHT22;1205;47.984;7.668;2022-11-20T14:14:02;10.00;99.90
2389;DHT22;1205;47.984;7.668;2022-11-20T14:16:32;10.60;99.90
2389;DHT22;1205;47.984;7.668;2022-11-20T14:21:53;10.20;99.90
2389;DHT22;1205;47.984;7.668;2022-11-20T14:24:24;10.20;99.90
2389;DHT22;1205;47.984;7.668;2022-11-20T14:26:50;10.20;99.90
2389;DHT22;1205;47.984;7.668;2022-11-20T14:29:19;10.10;99.90
2389;DHT22;1205;47.984;7.668;2022-11-20T14:31:46;10.10;99.90
2389;DHT22;1205;47.984;7.668;2022-11-20T14:34:39;10.10;99.90
2389;DHT22;1205;47.984;7.668;2022-11-20T14:37:10;10.00;99.90
2389;DHT22;1205;47.984;7.668;2022-11-20T14:39:40;10.00;99.90
2389;DHT22;1205;47.984;7.668;2022-11-20T14:42:17;10.00;99.90
2389;DHT22;1205;47.984;7.668;2022-11-20T14:44:44;9.90;99.90
2389;DHT22;1205;47.984;7.668;2022-11-20T14:47:12;9.80;99.90
2389;DHT22;1205;47.984;7.668;2022-11-20T14:49:38;10.00;99.90
2389;DHT22;1205;47.984;7.668;2022-11-20T14:52:20;10.00;99.90
2389;DHT22;1205;47.984;7.668;2022-11-20T14:55:04;9.90;99.90
2389;DHT22;1205;47.984;7.668;2022-11-20T14:57:34;9.90;99.90
2389;DHT22;1205;47.984;7.668;2022-11-20T15:00:20;9.80;99.90
2389;DHT22;1205;47.984;7.668;2022-11-20T15:02:48;9.70;99.90
2389;DHT22;1205;47.984;7.668;2022-11-20T15:05:15;9.80;99.90
2389;DHT22;1205;47.984;7.668;2022-11-20T15:07:49;9.80;99.90
2389;DHT22;1205;47.984;7.668;2022-11-20T15:10:23;9.70;99.90
2389;DHT22;1205;47.984;7.668;2022-11-20T15:12:54;9.60;99.90
2389;DHT22;1205;47.984;7.668;2022-11-20T15:15:35;9.60;99.90
2389;DHT22;1205;47.984;7.668;2022-11-20T15:18:02;9.50;99.90
2389;DHT22;1205;47.984;7.668;2022-11-20T15:20:31;9.50;99.90
2389;DHT22;1205;47.984;7.668;2022-11-20T15:22:57;9.60;99.90
2389;DHT22;1205;47.984;7.668;2022-11-20T15:25:23;9.50;99.90
2389;DHT22;1205;47.984;7.668;2022-11-20T15:27:53;9.50;99.90
2389;DHT22;1205;47.984;7.668;2022-11-20T15:30:20;9.50;99.90
2389;DHT22;1205;47.984;7.668;2022-11-20T15:32:46;9.50;99.90
2389;DHT22;1205;47.984;7.668;2022-11-20T15:35:13;9.30;99.90
2389;DHT22;1205;47.984;7.668;2022-11-20T15:37:39;9.30;99.90
2389;DHT22;1205;47.984;7.668;2022-11-20T15:40:06;9.40;99.90
2389;DHT22;1205;47.984;7.668;2022-11-20T15:42:32;9.30;99.90
2389;DHT22;1205;47.984;7.668;2022-11-20T15:44:58;9.30;99.90
2389;DHT22;1205;47.984;7.668;2022-11-20T15:47:30;9.20;99.90
2389;DHT22;1205;47.984;7.668;2022-11-20T15:49:56;9.30;99.90
2389;DHT22;1205;47.984;7.668;2022-11-20T15:52:22;9.30;99.90
2389;DHT22;1205;47.984;7.668;2022-11-20T15:54:47;9.30;99.90
2389;DHT22;1205;47.984;7.668;2022-11-20T15:57:13;9.30;99.90
2389;DHT22;1205;47.984;7.668;2022-11-20T15:59:39;9.30;99.90
2389;DHT22;1205;47.984;7.668;2022-11-20T16:02:13;9.30;99.90
2389;DHT22;1205;47.984;7.668;2022-11-20T16:04:39;9.20;99.90
2389;DHT22;1205;47.984;7.668;2022-11-20T16:07:05;9.20;99.90
2389;DHT22;1205;47.984;7.668;2022-11-20T16:09:31;9.20;99.90
2389;DHT22;1205;47.984;7.668;2022-11-20T16:11:56;9.20;99.90
2389;DHT22;1205;47.984;7.668;2022-11-20T16:14:25;9.10;99.90
2389;DHT22;1205;47.984;7.668;2022-11-20T16:17:09;9.10;99.90
2389;DHT22;1205;47.984;7.668;2022-11-20T16:19:35;9.10;99.90
2389;DHT22;1205;47.984;7.668;2022-11-20T16:22:00;9.10;99.90
2389;DHT22;1205;47.984;7.668;2022-11-20T16:24:26;9.10;99.90
2389;DHT22;1205;47.984;7.668;2022-11-20T16:26:53;9.10;99.90
2389;DHT22;1205;47.984;7.668;2022-11-20T16:29:19;9.10;99.90
2389;DHT22;1205;47.984;7.668;2022-11-20T16:31:45;9.10;99.90
2389;DHT22;1205;47.984;7.668;2022-11-20T16:34:10;9.10;99.90
2389;DHT22;1205;47.984;7.668;2022-11-20T16:36:39;9.10;99.90
2389;DHT22;1205;47.984;7.668;2022-11-20T16:39:04;9.10;99.90
2389;DHT22;1205;47.984;7.668;2022-11-20T16:41:32;9.10;99.90
2389;DHT22;1205;47.984;7.668;2022-11-20T16:44:00;9.10;99.90
2389;DHT22;1205;47.984;7.668;2022-11-20T16:46:31;9.10;99.90
2389;DHT22;1205;47.984;7.668;2022-11-20T16:48:59;9.10;99.90
2389;DHT22;1205;47.984;7.668;2022-11-20T16:51:26;9.00;99.90
2389;DHT22;1205;47.984;7.668;2022-11-20T16:53:52;9.00;99.90
2389;DHT22;1205;47.984;7.668;2022-11-20T16:56:21;9.00;99.90
2389;DHT22;1205;47.984;7.668;2022-11-20T16:58:48;9.10;99.90
2389;DHT22;1205;47.984;7.668;2022-11-20T17:01:17;9.10;99.90
2389;DHT22;1205;47.984;7.668;2022-11-20T17:03:45;9.10;99.90
2389;DHT22;1205;47.984;7.668;2022-11-20T17:06:18;9.00;99.90
2389;DHT22;1205;47.984;7.668;2022-11-20T17:08:44;9.10;99.90
2389;DHT22;1205;47.984;7.668;2022-11-20T17:11:13;9.00;99.90
2389;DHT22;1205;47.984;7.668;2022-11-20T17:13:39;9.00;99.90
2389;DHT22;1205;47.984;7.668;2022-11-20T17:16:13;8.90;99.90
2389;DHT22;1205;47.984;7.668;2022-11-20T17:18:39;9.00;99.90
2389;DHT22;1205;47.984;7.668;2022-11-20T17:21:05;8.90;99.90
2389;DHT22;1205;47.984;7.668;2022-11-20T17:23:37;8.90;99.90
2389;DHT22;1205;47.984;7.668;2022-11-20T17:26:14;8.90;99.90
2389;DHT22;1205;47.984;7.668;2022-11-20T17:28:42;8.90;99.90
2389;DHT22;1205;47.984;7.668;2022-11-20T17:31:10;8.80;99.90
2389;DHT22;1205;47.984;7.668;2022-11-20T17:33:38;8.80;99.90
2389;DHT22;1205;47.984;7.668;2022-11-20T17:36:05;8.90;99.90
2389;DHT22;1205;47.984;7.668;2022-11-20T17:38:31;8.80;99.90
2389;DHT22;1205;47.984;7.668;2022-11-20T17:41:05;8.80;99.90
2389;DHT22;1205;47.984;7.668;2022-11-20T17:43:31;8.80;99.90